East Hubbardton, Vermont
Current Conditions -  °F | °C
As of 12:55 PM on Saturday 20 Dec 2014 (Local Time) from KRUT Reporting Station
Clear Clear  
Wind Chill: 25°   Ceiling: Unl
Heat Index: 25°   Visibility: 10mi
Dew Point: 16°   Wind: 3mph
Humidity: 69%   Direction: 350°N
Pressure: 30.24"   Gusts: NA
Location:  43.6401°N, 73.1505°W
Report Text: KRUT 201755Z 35003KT 10SM CLR M04/M09 A3024 RMK AO1 11040 21120 57017
Loading
Personal Weather Stations






























Interactive Weather Map New forecast layout! Learn more

10-Day Weather Forecast

Advertisements
Track Severe Weather on mobile